Time;durP1;ratioP1;P1;durP2;ratioP2;P2;SDS_P1;SDS_P2;PMS_P1;PMS_P2;Temp;Humidity;BMP_temperature;BMP_pressure;BME280_temperature;BME280_humidity;BME280_pressure;Samples;Min_cycle;Max_cycle;Signal;HPM_P1;HPM_P2
2022/11/11 00:02:02;;;;;;;6.27;5.70;;;11.90;65.30;;;;;;5092706;28;20199;-59
2022/11/11 00:04:28;;;;;;;7.23;6.47;;;11.80;64.80;;;;;;5088163;28;20183;-58
2022/11/11 00:06:53;;;;;;;10.10;6.50;;;11.70;64.90;;;;;;5094678;28;20190;-59
2022/11/11 00:09:19;;;;;;;7.17;6.50;;;11.50;65.80;;;;;;5100783;28;20225;-58
2022/11/11 00:11:45;;;;;;;8.73;5.80;;;11.60;65.80;;;;;;5094545;28;20194;-59
2022/11/11 00:14:10;;;;;;;16.07;6.13;;;11.70;65.30;;;;;;5092193;28;20532;-59
2022/11/11 00:25:06;;;;;;;9.90;6.63;;;11.00;66.80;;;;;;5092100;28;20516;-58
2022/11/11 00:27:33;;;;;;;12.20;6.93;;;11.10;66.80;;;;;;5094766;28;20944;-58
2022/11/11 00:29:58;;;;;;;8.30;6.23;;;11.10;67.00;;;;;;5094953;28;20910;-58
2022/11/11 00:32:29;;;;;;;12.23;5.73;;;11.30;66.60;;;;;;5088271;28;20484;-58
2022/11/11 00:37:43;;;;;;;13.63;7.50;;;11.50;65.40;;;;;;5088538;28;20893;-58
2022/11/11 00:40:10;;;;;;;7.20;5.90;;;11.40;65.00;;;;;;5086129;28;20439;-58
2022/11/11 00:42:36;;;;;;;10.77;6.53;;;11.40;65.40;;;;;;5086787;28;20437;-58
2022/11/11 00:45:01;;;;;;;8.60;6.47;;;11.30;65.30;;;;;;5086405;28;20496;-58
2022/11/11 00:52:59;;;;;;;10.30;6.70;;;11.20;65.30;;;;;;5088080;28;20947;-58
2022/11/11 00:55:24;;;;;;;7.60;6.00;;;11.20;65.40;;;;;;5087993;28;20441;-58
2022/11/11 00:57:50;;;;;;;7.20;6.03;;;11.20;65.80;;;;;;5093632;28;20558;-58
2022/11/11 01:00:15;;;;;;;6.23;5.60;;;11.30;65.60;;;;;;5090947;28;20210;-58
2022/11/11 01:02:41;;;;;;;5.80;5.10;;;11.40;65.20;;;;;;5091118;28;20195;-58
2022/11/11 01:05:07;;;;;;;11.27;6.33;;;11.40;64.80;;;;;;5090397;28;20195;-58
2022/11/11 01:07:33;;;;;;;6.17;5.60;;;11.30;64.90;;;;;;5092730;28;20198;-58
2022/11/11 01:09:58;;;;;;;7.03;5.50;;;11.20;65.10;;;;;;5089066;28;20217;-58
2022/11/11 01:12:24;;;;;;;6.80;6.07;;;11.20;65.30;;;;;;5092058;28;20245;-58
2022/11/11 01:14:50;;;;;;;7.03;4.53;;;11.00;65.10;;;;;;5091842;28;20677;-58
2022/11/11 01:17:15;;;;;;;8.33;5.00;;;10.90;65.80;;;;;;5091262;28;20256;-58
2022/11/11 01:19:41;;;;;;;5.33;4.80;;;10.70;66.30;;;;;;5091531;28;20195;-58
2022/11/11 01:22:06;;;;;;;5.00;4.27;;;10.80;67.10;;;;;;5092072;28;20198;-58
2022/11/11 01:24:32;;;;;;;5.53;4.93;;;10.90;66.60;;;;;;5089380;28;20231;-58
2022/11/11 01:26:57;;;;;;;11.80;5.47;;;11.00;66.00;;;;;;5091862;28;20191;-58
2022/11/11 01:29:23;;;;;;;4.40;4.00;;;11.10;65.40;;;;;;5087448;28;20257;-58
2022/11/11 01:31:48;;;;;;;12.73;6.30;;;11.00;65.40;;;;;;5090055;28;20191;-58
2022/11/11 01:34:15;;;;;;;17.00;6.13;;;11.00;65.00;;;;;;5090341;28;20234;-58
2022/11/11 01:36:41;;;;;;;6.10;5.50;;;11.00;65.00;;;;;;5091305;28;21012;-59
2022/11/11 01:39:06;;;;;;;7.80;5.27;;;11.10;65.10;;;;;;5090241;28;20549;-58
2022/11/11 01:41:36;;;;;;;5.60;5.03;;;11.10;64.50;;;;;;5090250;28;20219;-58
2022/11/11 01:44:11;;;;;;;5.50;4.90;;;11.10;64.40;;;;;;5088698;28;20199;-58
2022/11/11 01:46:57;;;;;;;5.30;4.90;;;11.00;64.40;;;;;;5089965;28;20440;-58
2022/11/11 01:49:36;;;;;;;4.50;4.07;;;11.00;64.80;;;;;;5088935;28;20488;-58
2022/11/11 01:52:26;;;;;;;5.10;4.40;;;11.00;65.00;;;;;;5088751;28;20441;-58
2022/11/11 01:55:01;;;;;;;5.20;4.70;;;11.00;64.30;;;;;;5086522;28;20488;-59
2022/11/11 01:57:53;;;;;;;8.90;5.00;;;10.70;65.10;;;;;;5093247;28;20496;-58
2022/11/11 02:00:19;;;;;;;5.70;5.20;;;10.70;65.60;;;;;;5089106;28;20442;-59
2022/11/11 02:03:06;;;;;;;6.87;5.47;;;10.50;66.30;;;;;;5096902;28;20991;-58
2022/11/11 02:05:46;;;;;;;5.03;4.57;;;10.50;66.50;;;;;;5080214;28;20433;-59
2022/11/11 02:08:33;;;;;;;6.53;5.13;;;10.50;66.50;;;;;;5082735;28;20441;-59
2022/11/11 02:11:15;;;;;;;6.70;5.60;;;10.70;66.10;;;;;;5085033;28;20495;-58
2022/11/11 02:16:28;;;;;;;6.83;4.60;;;11.00;65.40;;;;;;5084258;28;20499;-58
2022/11/11 02:18:54;;;;;;;5.10;4.60;;;11.10;64.70;;;;;;5088109;28;20445;-59
2022/11/11 02:21:32;;;;;;;5.90;5.30;;;11.10;64.00;;;;;;5092240;28;20772;-58
2022/11/11 02:24:15;;;;;;;5.83;4.70;;;11.10;63.20;;;;;;5084113;28;20555;-58
2022/11/11 02:26:43;;;;;;;6.07;4.73;;;11.20;63.30;;;;;;5085731;28;20449;-58
2022/11/11 02:29:17;;;;;;;4.93;4.47;;;11.20;63.00;;;;;;5087403;28;20880;-58
2022/11/11 02:31:42;;;;;;;10.67;4.67;;;11.30;62.60;;;;;;5086268;28;20432;-58
2022/11/11 02:34:08;;;;;;;4.53;4.10;;;11.30;62.20;;;;;;5086506;28;20521;-58
2022/11/11 02:36:35;;;;;;;4.97;4.53;;;11.20;61.90;;;;;;5089214;28;20199;-58
2022/11/11 02:39:01;;;;;;;4.53;3.80;;;11.20;62.30;;;;;;5081029;28;20201;-58
2022/11/11 02:44:11;;;;;;;4.90;4.50;;;11.20;62.10;;;;;;5085268;28;20214;-58
2022/11/11 02:46:36;;;;;;;4.93;4.40;;;11.10;61.60;;;;;;5092216;28;20436;-58
2022/11/11 02:49:02;;;;;;;4.87;4.47;;;11.00;62.70;;;;;;5092146;28;20690;-58
2022/11/11 02:51:27;;;;;;;5.53;5.00;;;11.00;61.90;;;;;;5090223;28;20275;-58
2022/11/11 02:53:57;;;;;;;5.27;4.80;;;10.90;62.30;;;;;;5087071;28;20898;-58
2022/11/11 02:59:10;;;;;;;4.80;4.40;;;10.60;63.30;;;;;;5086741;28;20435;-58
2022/11/11 03:01:35;;;;;;;6.60;5.07;;;10.70;63.60;;;;;;5096114;28;20445;-58
2022/11/11 03:04:01;;;;;;;5.17;4.57;;;10.70;63.40;;;;;;5094813;28;20274;-58
2022/11/11 03:06:26;;;;;;;5.17;4.27;;;10.50;63.90;;;;;;5094439;28;20958;-59
2022/11/11 03:08:52;;;;;;;4.77;4.30;;;10.30;64.90;;;;;;5093525;28;20274;-58
2022/11/11 03:11:26;;;;;;;6.13;4.20;;;10.30;65.30;;;;;;5091113;28;20191;-58
2022/11/11 03:13:58;;;;;;;4.80;4.23;;;10.30;65.50;;;;;;5093621;28;20198;-58
2022/11/11 03:19:09;;;;;;;7.13;4.87;;;10.50;65.20;;;;;;5091450;28;20456;-58
2022/11/11 03:21:35;;;;;;;8.80;4.60;;;10.50;64.80;;;;;;5091336;28;20437;-58
2022/11/11 03:24:00;;;;;;;4.47;4.17;;;10.50;64.60;;;;;;5092466;28;20219;-59
2022/11/11 03:26:26;;;;;;;6.37;4.23;;;10.60;64.40;;;;;;5093821;28;20199;-58
2022/11/11 03:28:52;;;;;;;6.27;4.27;;;10.50;64.70;;;;;;5091069;28;20186;-58
2022/11/11 03:31:18;;;;;;;4.70;4.30;;;10.40;64.90;;;;;;5093235;28;20199;-58
2022/11/11 03:33:43;;;;;;;4.83;4.17;;;10.40;65.10;;;;;;5092559;28;20200;-58
2022/11/11 03:36:09;;;;;;;5.37;4.87;;;10.50;64.80;;;;;;5091312;28;20635;-58
2022/11/11 03:38:35;;;;;;;5.53;4.30;;;10.60;64.60;;;;;;5092155;28;20191;-59
2022/11/11 03:41:00;;;;;;;5.13;4.60;;;10.60;64.60;;;;;;5090487;28;20441;-58
2022/11/11 03:43:28;;;;;;;6.13;4.20;;;10.60;64.80;;;;;;5090136;28;20225;-58
2022/11/11 03:45:55;;;;;;;5.80;5.23;;;10.70;64.10;;;;;;5091300;28;20562;-59
2022/11/11 03:48:22;;;;;;;6.20;4.83;;;10.80;63.70;;;;;;5091060;28;20441;-59
2022/11/11 03:50:48;;;;;;;4.47;4.07;;;10.90;63.50;;;;;;5086392;28;20488;-59
2022/11/11 03:53:15;;;;;;;5.13;4.53;;;10.90;63.00;;;;;;5091799;28;20441;-59
2022/11/11 03:55:41;;;;;;;4.13;3.73;;;10.90;62.80;;;;;;5089240;28;21535;-59
2022/11/11 03:58:07;;;;;;;5.20;4.70;;;11.00;62.70;;;;;;5092691;28;20801;-59
2022/11/11 04:00:34;;;;;;;8.40;4.90;;;11.00;62.40;;;;;;5092227;28;20556;-59
2022/11/11 04:11:14;;;;;;;5.20;4.70;;;11.00;61.90;;;;;;5089480;28;20859;-59
2022/11/11 04:16:28;;;;;;;5.80;4.87;;;11.00;61.70;;;;;;5091019;28;20544;-59
2022/11/11 04:21:43;;;;;;;5.53;3.83;;;11.00;61.70;;;;;;5091547;28;20778;-59
2022/11/11 04:27:09;;;;;;;6.93;5.20;;;10.60;62.10;;;;;;5091296;28;20499;-59
2022/11/11 04:29:36;;;;;;;5.00;4.13;;;10.20;63.10;;;;;;5088102;28;20481;-59
2022/11/11 04:34:55;;;;;;;5.03;4.63;;;10.20;63.90;;;;;;5081293;28;20491;-59
2022/11/11 04:37:22;;;;;;;4.80;4.40;;;10.10;63.70;;;;;;5089601;28;20448;-59
2022/11/11 04:42:33;;;;;;;4.03;3.63;;;10.10;63.90;;;;;;5091036;28;20518;-59
2022/11/11 04:47:55;;;;;;;4.90;4.50;;;10.30;63.60;;;;;;5090392;28;20444;-59
2022/11/11 04:50:22;;;;;;;5.30;4.33;;;10.40;63.10;;;;;;5089276;28;20995;-59
2022/11/11 04:52:47;;;;;;;9.20;5.53;;;10.40;62.70;;;;;;5087037;28;20465;-59
2022/11/11 04:57:57;;;;;;;5.00;4.00;;;10.50;62.40;;;;;;5086652;28;20656;-59
2022/11/11 05:00:23;;;;;;;4.70;4.13;;;10.60;62.30;;;;;;5089689;28;20564;-59
2022/11/11 05:11:19;;;;;;;4.97;4.57;;;10.60;62.50;;;;;;5089396;28;20452;-59
2022/11/11 05:22:08;;;;;;;6.03;5.43;;;10.60;62.10;;;;;;5091319;28;20459;-58
2022/11/11 05:27:19;;;;;;;7.03;6.33;;;10.60;61.30;;;;;;5102539;28;20517;-59
2022/11/11 05:29:45;;;;;;;9.50;5.73;;;10.40;61.40;;;;;;5085400;28;20511;-59
2022/11/11 05:32:16;;;;;;;5.83;5.27;;;10.30;61.80;;;;;;5099147;28;20449;-59
2022/11/11 05:34:42;;;;;;;8.27;5.53;;;10.10;62.30;;;;;;5081966;28;20189;-59
2022/11/11 05:37:08;;;;;;;8.87;5.73;;;10.00;62.60;;;;;;5086323;28;20432;-59
2022/11/11 05:39:33;;;;;;;6.03;5.53;;;10.00;63.20;;;;;;5095233;28;20191;-59
2022/11/11 05:41:59;;;;;;;8.00;5.23;;;10.00;63.40;;;;;;5089630;28;20570;-59
2022/11/11 05:44:24;;;;;;;5.73;5.00;;;10.00;63.50;;;;;;5088937;28;20549;-59
2022/11/11 05:46:50;;;;;;;9.63;5.80;;;10.00;63.80;;;;;;5090302;28;20204;-59
2022/11/11 05:49:15;;;;;;;22.00;6.17;;;10.10;63.40;;;;;;5088618;28;20230;-59
2022/11/11 05:51:45;;;;;;;7.03;4.83;;;9.90;64.30;;;;;;5090824;28;20646;-59
2022/11/11 05:54:11;;;;;;;7.57;5.33;;;10.00;63.70;;;;;;5091495;28;20198;-59
2022/11/11 05:56:37;;;;;;;5.00;4.60;;;10.00;63.50;;;;;;5089040;28;21920;-60
2022/11/11 05:59:03;;;;;;;5.33;4.80;;;10.00;63.50;;;;;;5089738;28;20532;-59
2022/11/11 06:01:28;;;;;;;8.70;5.50;;;10.00;63.40;;;;;;5087611;28;20277;-58
2022/11/11 06:03:54;;;;;;;5.73;5.23;;;10.10;63.30;;;;;;5090867;28;20512;-59
2022/11/11 06:06:20;;;;;;;4.80;4.30;;;10.00;63.10;;;;;;5097477;28;20246;-59
2022/11/11 06:08:45;;;;;;;5.80;5.13;;;10.10;63.30;;;;;;5086813;28;20195;-59
2022/11/11 06:11:11;;;;;;;4.87;4.37;;;10.10;62.90;;;;;;5089673;28;20230;-59
2022/11/11 06:13:36;;;;;;;4.83;4.43;;;10.00;63.20;;;;;;5087740;28;20196;-59
2022/11/11 06:16:03;;;;;;;7.00;4.87;;;10.00;63.40;;;;;;5089496;28;20566;-60
2022/11/11 06:18:29;;;;;;;5.83;4.63;;;10.10;66.10;;;;;;5088113;28;21063;-60
2022/11/11 06:20:56;;;;;;;8.73;5.17;;;10.40;67.70;;;;;;5086794;28;20465;-60
2022/11/11 06:23:22;;;;;;;5.60;5.10;;;10.70;67.50;;;;;;5094162;28;20187;-60
2022/11/11 06:28:33;;;;;;;5.80;4.30;;;10.90;66.80;;;;;;5096118;28;20451;-60
2022/11/11 06:30:59;;;;;;;6.27;4.67;;;11.10;65.20;;;;;;5086985;28;20494;-59
2022/11/11 06:33:25;;;;;;;6.50;4.87;;;11.30;65.40;;;;;;5101170;28;20440;-60
2022/11/11 06:35:51;;;;;;;5.53;5.03;;;11.30;63.90;;;;;;5096480;28;20247;-60
2022/11/11 06:38:17;;;;;;;5.30;4.53;;;11.40;63.50;;;;;;5102154;28;20191;-59
2022/11/11 06:40:43;;;;;;;5.17;4.67;;;11.40;62.60;;;;;;5090061;28;20441;-61
2022/11/11 06:43:09;;;;;;;5.60;4.53;;;11.50;62.70;;;;;;5118839;27;20650;-59
2022/11/11 06:45:35;;;;;;;6.40;5.57;;;11.70;61.70;;;;;;5100281;27;20437;-60
2022/11/11 06:48:04;;;;;;;6.23;5.47;;;11.20;60.30;;;;;;5096177;28;20602;-59
2022/11/11 06:50:31;;;;;;;8.07;5.50;;;11.20;61.80;;;;;;5093540;28;21031;-59
2022/11/11 06:53:06;;;;;;;7.63;5.13;;;11.20;60.60;;;;;;5099487;28;20455;-59
2022/11/11 06:55:33;;;;;;;9.43;6.10;;;11.10;61.40;;;;;;5091725;28;20610;-60
2022/11/11 06:58:09;;;;;;;7.80;6.30;;;11.10;61.30;;;;;;5096837;27;21226;-59
2022/11/11 07:00:36;;;;;;;9.40;6.80;;;10.70;61.00;;;;;;5092396;28;20434;-60
2022/11/11 07:03:06;;;;;;;6.20;5.57;;;10.70;63.00;;;;;;5097469;28;20807;-59
2022/11/11 07:05:32;;;;;;;5.43;4.93;;;10.80;63.20;;;;;;5092849;28;20518;-59
2022/11/11 07:08:06;;;;;;;6.93;5.10;;;11.00;63.20;;;;;;5097595;28;20774;-59
2022/11/11 07:10:33;;;;;;;6.57;5.10;;;11.00;62.90;;;;;;5085995;28;20527;-60
2022/11/11 07:12:58;;;;;;;5.80;5.20;;;11.30;62.90;;;;;;5100139;28;20821;-59
2022/11/11 07:15:25;;;;;;;6.53;5.80;;;11.40;62.00;;;;;;5097761;28;20433;-59
2022/11/11 07:17:50;;;;;;;6.37;5.77;;;11.20;62.10;;;;;;5097203;27;20263;-59
2022/11/11 07:20:16;;;;;;;6.00;5.50;;;11.10;61.80;;;;;;5094598;28;20445;-60
2022/11/11 07:22:42;;;;;;;5.97;5.03;;;11.30;62.60;;;;;;5097184;28;20191;-59
2022/11/11 07:25:08;;;;;;;5.00;4.53;;;11.40;61.60;;;;;;5095206;28;20300;-59
2022/11/11 07:27:40;;;;;;;5.20;4.70;;;11.20;61.90;;;;;;5095586;28;20255;-61
2022/11/11 07:30:07;;;;;;;5.50;5.00;;;11.20;62.50;;;;;;5093618;28;20488;-59
2022/11/11 07:32:33;;;;;;;6.00;4.20;;;11.50;62.30;;;;;;5093766;28;20436;-59
2022/11/11 07:34:59;;;;;;;10.33;5.00;;;11.50;61.70;;;;;;5091295;28;20437;-59
2022/11/11 07:37:25;;;;;;;5.37;4.93;;;11.70;61.60;;;;;;5100599;28;20642;-59
2022/11/11 07:39:50;;;;;;;4.73;4.33;;;11.90;61.10;;;;;;5087242;28;20252;-59
2022/11/11 07:42:16;;;;;;;8.00;5.17;;;11.80;61.40;;;;;;5089969;28;20446;-59
2022/11/11 07:44:42;;;;;;;6.17;5.07;;;11.90;61.70;;;;;;5093044;28;20211;-60
2022/11/11 07:47:08;;;;;;;5.90;5.13;;;12.00;62.40;;;;;;5086684;28;20191;-60
2022/11/11 07:49:33;;;;;;;6.27;5.67;;;12.10;61.30;;;;;;5092962;28;20594;-60
2022/11/11 07:51:59;;;;;;;5.20;4.70;;;11.80;61.80;;;;;;5092058;28;20195;-59
2022/11/11 07:54:25;;;;;;;6.07;4.73;;;11.50;62.80;;;;;;5091947;28;20853;-59
2022/11/11 07:56:50;;;;;;;6.13;4.83;;;11.10;63.90;;;;;;5098797;28;20677;-59
2022/11/11 07:59:16;;;;;;;6.03;5.43;;;11.10;65.40;;;;;;5091888;28;20191;-59
2022/11/11 08:01:42;;;;;;;6.10;5.07;;;11.00;66.40;;;;;;5091052;28;20195;-59
2022/11/11 08:04:07;;;;;;;5.33;4.83;;;11.40;66.00;;;;;;5088146;28;20654;-59
2022/11/11 08:06:33;;;;;;;5.33;4.93;;;11.60;65.00;;;;;;5090202;28;20191;-60
2022/11/11 08:08:59;;;;;;;5.43;4.93;;;11.90;64.20;;;;;;5089760;28;20568;-59
2022/11/11 08:14:08;;;;;;;4.63;4.33;;;12.30;63.40;;;;;;5090693;28;20205;-59
2022/11/11 08:16:34;;;;;;;5.63;5.10;;;12.30;62.40;;;;;;5092153;28;20441;-59
2022/11/11 08:19:00;;;;;;;7.40;4.90;;;12.50;62.40;;;;;;5097012;28;20195;-60
2022/11/11 08:21:26;;;;;;;5.10;4.60;;;12.80;62.10;;;;;;5093453;28;20425;-60
2022/11/11 08:23:53;;;;;;;6.80;5.13;;;12.90;61.70;;;;;;5095778;28;20538;-59
2022/11/11 08:26:20;;;;;;;6.40;5.63;;;12.90;61.30;;;;;;5090407;28;20441;-59
2022/11/11 08:28:46;;;;;;;5.27;4.77;;;12.80;61.60;;;;;;5086010;28;20559;-60
2022/11/11 08:31:11;;;;;;;8.50;5.30;;;12.90;61.50;;;;;;5099029;28;20545;-59
2022/11/11 08:33:37;;;;;;;5.67;5.07;;;13.10;61.50;;;;;;5093142;28;20187;-59
2022/11/11 08:36:04;;;;;;;6.70;4.90;;;13.00;61.60;;;;;;5092718;28;20200;-60
2022/11/11 08:38:30;;;;;;;5.40;4.87;;;12.80;62.10;;;;;;5092234;28;20199;-61
2022/11/11 08:40:59;;;;;;;7.57;5.57;;;12.80;62.70;;;;;;5092920;28;20445;-59
2022/11/11 08:43:25;;;;;;;6.03;5.33;;;13.00;62.30;;;;;;5089902;28;20613;-59
2022/11/11 08:45:53;;;;;;;7.23;4.50;;;13.10;61.50;;;;;;5102800;28;20512;-60
2022/11/11 08:48:19;;;;;;;5.80;4.90;;;13.10;62.40;;;;;;5101325;28;20266;-60
2022/11/11 08:50:45;;;;;;;5.50;4.90;;;13.30;62.30;;;;;;5092911;28;20564;-59
2022/11/11 08:53:10;;;;;;;6.93;4.80;;;13.30;62.90;;;;;;5092716;28;20912;-60
2022/11/11 08:55:37;;;;;;;7.50;4.70;;;13.30;63.00;;;;;;5089484;28;20199;-59
2022/11/11 08:58:05;;;;;;;7.43;5.00;;;13.50;62.80;;;;;;5099443;28;20187;-59
2022/11/11 09:00:32;;;;;;;5.73;5.00;;;13.60;61.90;;;;;;5091986;28;20508;-60
2022/11/11 09:03:06;;;;;;;5.00;4.50;;;13.80;62.40;;;;;;5093377;28;20796;-60
2022/11/11 09:05:32;;;;;;;6.23;4.47;;;13.90;62.50;;;;;;5093814;28;20437;-60
2022/11/11 09:08:02;;;;;;;6.10;4.63;;;14.00;62.50;;;;;;5092540;28;20490;-60
2022/11/11 09:10:28;;;;;;;5.37;4.87;;;14.10;62.20;;;;;;5091963;28;20491;-60
2022/11/11 09:12:57;;;;;;;6.13;4.90;;;14.40;62.20;;;;;;5092744;28;20425;-60
2022/11/11 09:15:23;;;;;;;5.53;4.60;;;14.50;61.90;;;;;;5093361;28;20585;-59
2022/11/11 09:17:48;;;;;;;8.50;5.23;;;14.60;61.90;;;;;;5098980;28;20428;-59
2022/11/11 09:20:14;;;;;;;6.37;5.77;;;14.90;61.90;;;;;;5091596;28;20240;-59
2022/11/11 09:22:47;;;;;;;9.33;6.20;;;15.00;60.70;;;;;;5090807;28;20268;-59
2022/11/11 09:25:13;;;;;;;7.80;6.30;;;14.90;60.40;;;;;;5091594;28;20487;-59
2022/11/11 09:27:39;;;;;;;7.50;6.70;;;14.60;59.80;;;;;;5091685;28;20449;-60
2022/11/11 09:30:06;;;;;;;9.70;6.23;;;14.60;60.10;;;;;;5091240;28;20481;-59
2022/11/11 09:32:32;;;;;;;6.97;6.03;;;14.40;60.60;;;;;;5092394;28;20191;-59
2022/11/11 09:34:59;;;;;;;6.13;5.33;;;14.40;60.60;;;;;;5091821;28;20922;-59
2022/11/11 09:37:24;;;;;;;5.83;5.17;;;14.50;61.70;;;;;;5101704;28;20198;-59
2022/11/11 09:39:50;;;;;;;5.80;5.30;;;14.70;60.40;;;;;;5091254;28;20520;-60
2022/11/11 09:42:43;;;;;;;5.57;5.07;;;15.00;60.90;;;;;;5092164;28;20191;-60
2022/11/11 09:45:52;;;;;;;5.10;4.10;;;15.30;58.90;;;;;;5091675;28;20213;-59
2022/11/11 09:48:31;;;;;;;5.40;5.00;;;15.00;58.70;;;;;;5075565;28;20472;-59
2022/11/11 09:51:01;;;;;;;5.07;4.67;;;14.60;59.80;;;;;;5091828;28;20956;-60
2022/11/11 09:53:39;;;;;;;6.50;5.90;;;15.00;61.00;;;;;;5091328;28;20437;-59
2022/11/11 09:56:09;;;;;;;4.93;4.43;;;15.40;59.10;;;;;;5091906;28;20464;-59
2022/11/11 09:58:47;;;;;;;5.20;4.67;;;15.50;59.10;;;;;;5087337;28;20441;-59
2022/11/11 10:01:21;;;;;;;5.20;4.70;;;16.00;58.90;;;;;;5088006;28;21124;-59
2022/11/11 10:04:00;;;;;;;6.27;4.90;;;16.20;57.90;;;;;;5088992;28;20818;-59
2022/11/11 10:06:30;;;;;;;5.83;5.23;;;16.40;57.50;;;;;;5090476;28;20441;-59
2022/11/11 10:09:05;;;;;;;5.43;4.23;;;16.50;57.10;;;;;;5088981;28;20431;-59
2022/11/11 10:11:33;;;;;;;4.63;4.17;;;16.50;57.00;;;;;;5085789;28;20453;-59
2022/11/11 10:13:59;;;;;;;3.97;3.67;;;16.60;56.80;;;;;;5089410;28;21189;-59
2022/11/11 10:17:00;;;;;;;5.33;4.80;;;16.60;56.40;;;;;;5087325;28;20445;-59
2022/11/11 10:19:51;;;;;;;4.93;4.03;;;16.60;56.10;;;;;;5086377;28;20248;-59
2022/11/11 10:22:24;;;;;;;5.33;4.07;;;16.70;55.90;;;;;;5087394;28;20455;-59
2022/11/11 10:25:16;;;;;;;4.50;4.10;;;17.00;55.80;;;;;;5083550;28;20956;-59
2022/11/11 10:27:44;;;;;;;5.23;3.63;;;17.20;55.50;;;;;;5084430;28;20482;-59
2022/11/11 10:30:16;;;;;;;5.00;4.47;;;17.40;55.60;;;;;;5082451;28;20565;-59
2022/11/11 10:32:44;;;;;;;4.33;3.93;;;17.60;55.30;;;;;;5082051;28;20528;-58
2022/11/11 10:35:17;;;;;;;4.70;4.30;;;17.70;54.80;;;;;;5089015;28;20440;-58
2022/11/11 10:37:44;;;;;;;6.63;4.70;;;17.90;54.40;;;;;;5084574;28;20445;-58
2022/11/11 10:40:19;;;;;;;9.53;4.50;;;18.00;54.30;;;;;;5082053;28;20437;-59
2022/11/11 10:42:45;;;;;;;9.00;3.60;;;18.00;54.20;;;;;;5084352;28;20437;-58
2022/11/11 10:45:33;;;;;;;4.90;3.47;;;18.00;53.90;;;;;;5084963;28;20556;-59
2022/11/11 10:48:10;;;;;;;5.07;3.67;;;18.20;53.50;;;;;;5085850;28;20244;-58
2022/11/11 10:50:43;;;;;;;4.10;3.40;;;18.40;53.80;;;;;;5089189;28;20538;-58
2022/11/11 10:53:18;;;;;;;4.10;3.80;;;18.30;53.40;;;;;;5087818;28;20441;-59
2022/11/11 10:55:47;;;;;;;3.80;3.40;;;18.40;54.20;;;;;;5088720;28;20441;-58
2022/11/11 10:58:28;;;;;;;4.87;3.97;;;18.70;53.10;;;;;;5086218;28;20441;-58
2022/11/11 11:00:56;;;;;;;8.77;3.80;;;18.80;52.50;;;;;;5089944;28;20453;-58
2022/11/11 11:03:31;;;;;;;3.80;3.40;;;19.10;52.30;;;;;;5092302;28;20440;-58
2022/11/11 11:06:27;;;;;;;3.80;3.20;;;19.20;52.30;;;;;;5083934;28;20463;-58
2022/11/11 11:09:14;;;;;;;4.30;3.27;;;19.20;52.30;;;;;;5073481;28;20514;-58
2022/11/11 11:11:54;;;;;;;4.93;4.00;;;19.40;50.90;;;;;;5088702;28;20952;-58
2022/11/11 11:14:27;;;;;;;5.97;3.53;;;19.50;50.70;;;;;;5084544;28;20468;-58
2022/11/11 11:16:57;;;;;;;4.30;3.50;;;19.40;50.60;;;;;;5089284;28;20539;-58
2022/11/11 11:19:27;;;;;;;3.73;3.43;;;19.30;50.40;;;;;;5089943;28;20442;-58
2022/11/11 11:22:00;;;;;;;5.40;3.60;;;18.90;50.80;;;;;;5093688;28;20436;-58
2022/11/11 11:24:25;;;;;;;6.00;4.13;;;18.40;52.30;;;;;;5083621;28;20476;-58
2022/11/11 11:26:54;;;;;;;5.47;3.47;;;18.00;53.10;;;;;;5091734;28;20456;-58
2022/11/11 11:29:29;;;;;;;6.80;5.67;;;18.00;53.30;;;;;;5091351;28;20191;-58
2022/11/11 11:31:55;;;;;;;4.97;4.07;;;18.30;52.90;;;;;;5093338;28;20456;-58
2022/11/11 11:34:40;;;;;;;10.33;3.07;;;18.70;52.20;;;;;;5093545;28;20445;-58
2022/11/11 11:37:06;;;;;;;6.93;4.33;;;18.90;51.90;;;;;;5093876;28;20813;-58
2022/11/11 11:39:37;;;;;;;5.67;3.77;;;19.00;51.50;;;;;;5091327;28;20433;-58
2022/11/11 11:42:03;;;;;;;3.70;3.40;;;19.10;51.40;;;;;;5090976;28;20191;-58
2022/11/11 11:44:36;;;;;;;4.93;3.53;;;19.20;51.50;;;;;;5085304;28;20441;-58
2022/11/11 11:47:25;;;;;;;6.83;3.87;;;19.30;51.50;;;;;;5089767;28;20472;-58
2022/11/11 11:49:56;;;;;;;4.23;3.70;;;19.60;51.00;;;;;;5049784;28;20984;-58
2022/11/11 11:52:46;;;;;;;6.77;3.30;;;19.70;50.80;;;;;;5090814;28;20445;-58
2022/11/11 11:55:21;;;;;;;3.50;3.00;;;19.90;50.00;;;;;;5084726;28;20446;-58
2022/11/11 11:57:53;;;;;;;6.50;4.50;;;20.00;49.30;;;;;;5094885;28;20527;-58
2022/11/11 12:00:29;;;;;;;6.57;3.23;;;19.90;49.00;;;;;;5088310;28;20445;-58
2022/11/11 12:03:32;;;;;;;4.40;3.17;;;19.90;49.60;;;;;;5094169;28;20855;-57
2022/11/11 12:06:18;;;;;;;5.73;3.87;;;20.10;49.80;;;;;;5091003;28;20472;-58
2022/11/11 12:09:09;;;;;;;5.17;3.77;;;20.40;49.90;;;;;;5092197;28;20432;-58
2022/11/11 12:11:50;;;;;;;3.80;3.30;;;20.60;50.80;;;;;;5082860;28;20853;-58
2022/11/11 12:14:37;;;;;;;6.53;3.37;;;20.80;49.60;;;;;;5095698;28;20451;-58
2022/11/11 12:17:22;;;;;;;3.53;3.23;;;20.90;49.10;;;;;;5091560;28;20524;-58
2022/11/11 12:19:53;;;;;;;4.00;3.00;;;21.00;48.20;;;;;;5090096;28;20441;-57
2022/11/11 12:22:43;;;;;;;4.40;3.03;;;20.90;48.00;;;;;;5092195;28;20459;-57
2022/11/11 12:25:36;;;;;;;4.47;2.13;;;20.90;48.70;;;;;;5090437;28;20473;-57
2022/11/11 12:28:14;;;;;;;4.30;3.30;;;21.00;48.30;;;;;;5087744;28;20886;-58
2022/11/11 12:30:50;;;;;;;4.10;2.80;;;21.00;48.50;;;;;;5090856;28;20542;-58
2022/11/11 12:33:41;;;;;;;3.47;2.90;;;21.10;48.70;;;;;;5086853;28;20459;-58
2022/11/11 12:36:23;;;;;;;2.77;2.57;;;21.20;48.90;;;;;;5085186;28;20503;-58
2022/11/11 12:39:29;;;;;;;7.57;5.07;;;21.30;48.40;;;;;;5097204;28;20445;-58
2022/11/11 12:41:57;;;;;;;5.40;3.50;;;21.30;49.40;;;;;;5083196;28;20510;-59
2022/11/11 12:44:40;;;;;;;4.27;3.00;;;21.60;48.80;;;;;;5087486;28;20532;-58
2022/11/11 12:47:11;;;;;;;3.50;2.63;;;21.80;48.30;;;;;;5089258;28;20967;-58
2022/11/11 12:49:40;;;;;;;4.20;2.97;;;21.90;47.80;;;;;;5085799;28;20488;-59
2022/11/11 12:52:26;;;;;;;3.37;3.07;;;21.90;47.30;;;;;;5090100;28;20481;-58
2022/11/11 12:55:03;;;;;;;5.23;2.70;;;21.90;47.00;;;;;;5060671;28;20437;-58
2022/11/11 12:58:01;;;;;;;4.00;2.80;;;21.80;46.80;;;;;;5087293;28;20504;-59
2022/11/11 13:00:27;;;;;;;2.50;2.30;;;21.80;47.20;;;;;;5089075;28;20451;-58
2022/11/11 13:03:10;;;;;;;3.00;2.53;;;21.90;47.00;;;;;;5088824;28;20441;-59
2022/11/11 13:05:42;;;;;;;2.90;2.43;;;22.00;46.70;;;;;;5086667;28;20718;-59
2022/11/11 13:08:37;;;;;;;5.03;2.67;;;22.00;46.40;;;;;;5087905;28;20449;-58
2022/11/11 13:11:22;;;;;;;4.27;3.10;;;22.10;46.50;;;;;;5089696;28;20532;-58
2022/11/11 13:14:10;;;;;;;4.00;2.80;;;22.10;46.20;;;;;;5089126;28;20456;-59
2022/11/11 13:16:35;;;;;;;5.07;3.03;;;22.20;46.30;;;;;;5084587;28;20483;-58
2022/11/11 13:19:13;;;;;;;10.60;3.17;;;22.10;46.50;;;;;;5088370;28;21488;-58
2022/11/11 13:21:59;;;;;;;5.20;3.40;;;22.00;46.80;;;;;;5088890;28;20195;-58
2022/11/11 13:24:25;;;;;;;4.90;3.67;;;22.00;46.70;;;;;;5084589;28;21061;-58
2022/11/11 13:27:01;;;;;;;7.33;4.33;;;21.90;46.50;;;;;;5089211;28;20472;-58
2022/11/11 13:29:52;;;;;;;3.90;3.50;;;21.90;46.90;;;;;;5087223;28;20445;-58
2022/11/11 13:32:24;;;;;;;4.70;3.30;;;22.00;47.10;;;;;;5085242;28;20505;-58
2022/11/11 13:34:51;;;;;;;2.87;2.67;;;22.00;47.30;;;;;;5089325;28;20433;-58
2022/11/11 13:37:28;;;;;;;2.77;2.57;;;21.90;47.90;;;;;;5090732;28;20494;-58
2022/11/11 13:40:02;;;;;;;4.93;3.07;;;21.80;47.60;;;;;;5089250;28;20453;-59
2022/11/11 13:42:35;;;;;;;5.60;3.40;;;21.80;47.60;;;;;;5084400;28;20453;-59
2022/11/11 13:45:03;;;;;;;5.20;3.30;;;21.80;47.30;;;;;;5086213;28;20472;-58
2022/11/11 13:47:43;;;;;;;4.03;2.83;;;21.80;47.20;;;;;;5087162;28;20464;-58
2022/11/11 13:50:30;;;;;;;6.80;3.13;;;21.80;47.10;;;;;;5086771;28;20475;-58
2022/11/11 13:53:03;;;;;;;3.17;2.60;;;21.80;47.30;;;;;;5091053;28;20456;-58
2022/11/11 13:55:34;;;;;;;3.03;2.83;;;21.80;47.20;;;;;;5089293;28;20441;-58
2022/11/11 13:58:01;;;;;;;3.73;3.00;;;21.70;47.40;;;;;;5088770;28;20831;-58
2022/11/11 14:00:37;;;;;;;3.80;3.00;;;21.80;47.60;;;;;;5087492;28;20917;-59
2022/11/11 14:03:21;;;;;;;3.57;3.10;;;21.80;47.50;;;;;;5088241;28;20449;-60
2022/11/11 14:05:46;;;;;;;3.03;2.83;;;21.90;47.70;;;;;;5088817;28;20531;-59
2022/11/11 14:08:46;;;;;;;3.40;3.10;;;21.90;47.70;;;;;;5087759;28;20884;-58
2022/11/11 14:11:24;;;;;;;4.37;3.13;;;21.80;47.40;;;;;;5084173;28;20583;-58
2022/11/11 14:13:50;;;;;;;2.93;2.70;;;21.90;47.90;;;;;;5090077;28;20474;-58
2022/11/11 14:16:34;;;;;;;3.40;3.10;;;22.00;48.10;;;;;;5089847;28;20448;-58
2022/11/11 14:19:18;;;;;;;3.27;2.97;;;22.00;48.00;;;;;;5089726;28;20917;-58
2022/11/11 14:21:55;;;;;;;7.57;4.90;;;22.00;48.20;;;;;;5092740;28;20453;-58
2022/11/11 14:24:45;;;;;;;5.80;5.30;;;21.90;48.00;;;;;;5088248;28;20577;-58
2022/11/11 14:27:11;;;;;;;7.03;4.03;;;21.90;48.20;;;;;;5083748;28;20472;-59